Accueil
METAR-TAF:

METAR-TAF

Aéroports :

Quinhagak, Alaska, États-Unis

latitude: 59-45-18N, longitude: 161-50-43W, altitude: 13 m

Observation

Le bulletin a été fait il y a 30 minutes, à 22:56 UTC
Vent 20 kt de sud
Température -6°C
Humidité 86%
Pression 1011 hPa
Visibilité: 12.9 km
Nuages fragmentés à une hauteur de 2100 ft
Nuages fragmentés à une hauteur de 2800 ft
neige faible

METAR: PAQH 222256Z AUTO 18020KT 8SM -SN BKN021 BKN028 M06/M08 A2986 RMK AO2 SLP112 P0000 T10611083 FZRANO

Heure: 14:26 (23:26 UTC)


TAF: absent

Observations et prévisions météorologiques de plus de 4000 aéroports (messages METAR et TAF).

Les stations disponibles sont représentées par des disques jaunes et rouges sur la carte.

Passer la souris dessus pour voir le nom de la station.

Cliquer dessus pour voir les observations et prévisions météorologiques.

Pour changer de carte: cliquez sur les boutons verts avec une croix noire pour zoomer, sur le bouton vert avec un tiret pour effectuer un zoom arrière, ou sur les flèches vertes pour les cartes adjacentes.


METAR-TAF: